sensor_id;sensor_type;location;lat;lon;timestamp;temperature;humidity
758;DHT22;363;48.764;9.172;2023-02-15T00:01:51;2.20;99.90
758;DHT22;363;48.764;9.172;2023-02-15T00:04:20;1.40;99.90
758;DHT22;363;48.764;9.172;2023-02-15T00:06:46;2.10;99.90
758;DHT22;363;48.764;9.172;2023-02-15T00:09:12;1.80;99.90
758;DHT22;363;48.764;9.172;2023-02-15T00:11:38;1.90;99.90
758;DHT22;363;48.764;9.172;2023-02-15T00:14:22;1.70;99.90
758;DHT22;363;48.764;9.172;2023-02-15T00:16:50;1.40;99.90
758;DHT22;363;48.764;9.172;2023-02-15T00:19:17;2.00;99.90
758;DHT22;363;48.764;9.172;2023-02-15T00:21:43;2.10;99.90
758;DHT22;363;48.764;9.172;2023-02-15T00:24:11;1.70;99.90
758;DHT22;363;48.764;9.172;2023-02-15T00:26:38;1.80;99.90
758;DHT22;363;48.764;9.172;2023-02-15T00:29:04;2.00;99.90
758;DHT22;363;48.764;9.172;2023-02-15T00:31:31;2.00;99.90
758;DHT22;363;48.764;9.172;2023-02-15T00:34:06;2.10;99.90
758;DHT22;363;48.764;9.172;2023-02-15T00:36:32;2.00;99.90
758;DHT22;363;48.764;9.172;2023-02-15T00:38:58;1.80;99.90
758;DHT22;363;48.764;9.172;2023-02-15T00:41:24;2.00;99.90
758;DHT22;363;48.764;9.172;2023-02-15T00:43:50;1.70;99.90
758;DHT22;363;48.764;9.172;2023-02-15T00:46:15;1.70;99.90
758;DHT22;363;48.764;9.172;2023-02-15T00:48:41;1.10;99.90
758;DHT22;363;48.764;9.172;2023-02-15T00:51:07;1.40;99.90
758;DHT22;363;48.764;9.172;2023-02-15T00:53:32;1.50;99.90
758;DHT22;363;48.764;9.172;2023-02-15T00:55:58;1.70;99.90
758;DHT22;363;48.764;9.172;2023-02-15T00:58:24;1.40;99.90
758;DHT22;363;48.764;9.172;2023-02-15T01:00:51;1.30;99.90
758;DHT22;363;48.764;9.172;2023-02-15T01:03:19;1.60;99.90
758;DHT22;363;48.764;9.172;2023-02-15T01:05:46;1.40;99.90
758;DHT22;363;48.764;9.172;2023-02-15T01:08:12;1.00;99.90
758;DHT22;363;48.764;9.172;2023-02-15T01:10:38;0.90;99.90
758;DHT22;363;48.764;9.172;2023-02-15T01:13:04;1.80;99.90
758;DHT22;363;48.764;9.172;2023-02-15T01:15:29;1.00;99.90
758;DHT22;363;48.764;9.172;2023-02-15T01:17:55;1.20;99.90
758;DHT22;363;48.764;9.172;2023-02-15T01:20:24;1.40;99.90
758;DHT22;363;48.764;9.172;2023-02-15T01:22:50;1.50;99.90
758;DHT22;363;48.764;9.172;2023-02-15T01:25:17;1.80;99.90
758;DHT22;363;48.764;9.172;2023-02-15T01:27:43;1.80;99.90
758;DHT22;363;48.764;9.172;2023-02-15T01:30:09;1.40;99.90
758;DHT22;363;48.764;9.172;2023-02-15T01:32:35;1.80;99.90
758;DHT22;363;48.764;9.172;2023-02-15T01:35:01;1.60;99.90
758;DHT22;363;48.764;9.172;2023-02-15T01:37:27;0.90;99.90
758;DHT22;363;48.764;9.172;2023-02-15T01:39:52;1.40;99.90
758;DHT22;363;48.764;9.172;2023-02-15T01:42:23;1.50;99.90
758;DHT22;363;48.764;9.172;2023-02-15T01:44:54;1.40;99.90
758;DHT22;363;48.764;9.172;2023-02-15T01:47:45;1.30;99.90
758;DHT22;363;48.764;9.172;2023-02-15T01:50:18;1.30;99.90
758;DHT22;363;48.764;9.172;2023-02-15T01:55:18;1.70;99.90
758;DHT22;363;48.764;9.172;2023-02-15T01:57:45;1.20;99.90
758;DHT22;363;48.764;9.172;2023-02-15T02:00:13;1.90;99.90
758;DHT22;363;48.764;9.172;2023-02-15T02:02:40;1.60;99.90
758;DHT22;363;48.764;9.172;2023-02-15T02:05:08;2.00;99.90
758;DHT22;363;48.764;9.172;2023-02-15T02:07:39;0.90;99.90
758;DHT22;363;48.764;9.172;2023-02-15T02:10:10;1.40;99.90
758;DHT22;363;48.764;9.172;2023-02-15T02:12:37;1.10;99.90
758;DHT22;363;48.764;9.172;2023-02-15T02:15:04;1.10;99.90
758;DHT22;363;48.764;9.172;2023-02-15T02:17:42;1.10;99.90
758;DHT22;363;48.764;9.172;2023-02-15T02:20:34;1.30;99.90
758;DHT22;363;48.764;9.172;2023-02-15T02:29:25;1.60;99.90
758;DHT22;363;48.764;9.172;2023-02-15T02:35:40;1.40;99.90
758;DHT22;363;48.764;9.172;2023-02-15T02:40:43;1.10;99.90
758;DHT22;363;48.764;9.172;2023-02-15T02:43:38;1.00;99.90
758;DHT22;363;48.764;9.172;2023-02-15T02:46:24;1.20;99.90
758;DHT22;363;48.764;9.172;2023-02-15T02:48:52;0.90;99.90
758;DHT22;363;48.764;9.172;2023-02-15T02:51:18;1.00;99.90
758;DHT22;363;48.764;9.172;2023-02-15T02:53:50;1.20;99.90
758;DHT22;363;48.764;9.172;2023-02-15T02:56:24;1.20;99.90
758;DHT22;363;48.764;9.172;2023-02-15T02:59:03;1.20;99.90
758;DHT22;363;48.764;9.172;2023-02-15T03:01:57;1.10;99.90
758;DHT22;363;48.764;9.172;2023-02-15T03:04:28;0.90;99.90
758;DHT22;363;48.764;9.172;2023-02-15T03:06:59;1.00;99.90
758;DHT22;363;48.764;9.172;2023-02-15T03:09:37;-0.20;99.90
758;DHT22;363;48.764;9.172;2023-02-15T03:12:16;0.70;99.90
758;DHT22;363;48.764;9.172;2023-02-15T03:15:20;0.90;99.90
758;DHT22;363;48.764;9.172;2023-02-15T03:17:42;0.90;99.90
758;DHT22;363;48.764;9.172;2023-02-15T03:20:14;0.40;99.90
758;DHT22;363;48.764;9.172;2023-02-15T03:22:48;1.30;99.90
758;DHT22;363;48.764;9.172;2023-02-15T03:25:25;1.10;99.90
758;DHT22;363;48.764;9.172;2023-02-15T03:27:54;1.00;99.90
758;DHT22;363;48.764;9.172;2023-02-15T03:30:21;0.60;99.90
758;DHT22;363;48.764;9.172;2023-02-15T03:32:49;1.10;99.90
758;DHT22;363;48.764;9.172;2023-02-15T03:35:16;1.10;99.90
758;DHT22;363;48.764;9.172;2023-02-15T03:37:48;1.00;99.90
758;DHT22;363;48.764;9.172;2023-02-15T03:40:19;1.10;99.90
758;DHT22;363;48.764;9.172;2023-02-15T03:46:25;1.10;99.90
758;DHT22;363;48.764;9.172;2023-02-15T03:48:56;1.00;99.90
758;DHT22;363;48.764;9.172;2023-02-15T03:51:27;1.30;99.90
758;DHT22;363;48.764;9.172;2023-02-15T03:54:18;1.00;99.90
758;DHT22;363;48.764;9.172;2023-02-15T03:57:05;0.90;99.90
758;DHT22;363;48.764;9.172;2023-02-15T03:59:50;0.90;99.90
758;DHT22;363;48.764;9.172;2023-02-15T04:02:40;0.80;99.90
758;DHT22;363;48.764;9.172;2023-02-15T04:05:09;0.80;99.90
758;DHT22;363;48.764;9.172;2023-02-15T04:07:35;0.10;99.90
758;DHT22;363;48.764;9.172;2023-02-15T04:10:01;0.70;99.90
758;DHT22;363;48.764;9.172;2023-02-15T04:12:45;0.00;99.90
758;DHT22;363;48.764;9.172;2023-02-15T04:15:13;-0.10;99.90
758;DHT22;363;48.764;9.172;2023-02-15T04:17:57;0.70;99.90
758;DHT22;363;48.764;9.172;2023-02-15T04:20:23;0.90;99.90
758;DHT22;363;48.764;9.172;2023-02-15T04:23:07;0.80;99.90
758;DHT22;363;48.764;9.172;2023-02-15T04:25:52;0.80;99.90
758;DHT22;363;48.764;9.172;2023-02-15T04:28:17;0.50;99.90
758;DHT22;363;48.764;9.172;2023-02-15T04:30:43;0.60;99.90
758;DHT22;363;48.764;9.172;2023-02-15T04:33:08;0.50;99.90
758;DHT22;363;48.764;9.172;2023-02-15T04:35:34;0.50;99.90
758;DHT22;363;48.764;9.172;2023-02-15T04:37:59;1.00;99.90
758;DHT22;363;48.764;9.172;2023-02-15T04:40:25;0.40;99.90
758;DHT22;363;48.764;9.172;2023-02-15T04:42:51;0.30;99.90
758;DHT22;363;48.764;9.172;2023-02-15T04:45:17;-0.30;99.90
758;DHT22;363;48.764;9.172;2023-02-15T04:47:43;0.50;99.90
758;DHT22;363;48.764;9.172;2023-02-15T04:50:09;0.70;99.90
758;DHT22;363;48.764;9.172;2023-02-15T04:52:35;0.40;99.90
758;DHT22;363;48.764;9.172;2023-02-15T04:55:00;0.90;99.90
758;DHT22;363;48.764;9.172;2023-02-15T04:57:26;-0.10;99.90
758;DHT22;363;48.764;9.172;2023-02-15T04:59:51;0.50;99.90
758;DHT22;363;48.764;9.172;2023-02-15T05:02:17;0.20;99.90
758;DHT22;363;48.764;9.172;2023-02-15T05:04:43;0.50;99.90
758;DHT22;363;48.764;9.172;2023-02-15T05:07:08;0.50;99.90
758;DHT22;363;48.764;9.172;2023-02-15T05:09:34;0.60;99.90
758;DHT22;363;48.764;9.172;2023-02-15T05:11:59;0.00;99.90
758;DHT22;363;48.764;9.172;2023-02-15T05:14:25;0.00;99.90
758;DHT22;363;48.764;9.172;2023-02-15T05:16:51;0.50;99.90
758;DHT22;363;48.764;9.172;2023-02-15T05:19:16;0.50;99.90
758;DHT22;363;48.764;9.172;2023-02-15T05:21:42;-0.10;99.90
758;DHT22;363;48.764;9.172;2023-02-15T05:24:07;0.90;99.90
758;DHT22;363;48.764;9.172;2023-02-15T05:26:52;0.50;99.90
758;DHT22;363;48.764;9.172;2023-02-15T05:29:36;-0.20;99.90
758;DHT22;363;48.764;9.172;2023-02-15T05:32:01;0.20;99.90
758;DHT22;363;48.764;9.172;2023-02-15T05:34:27;0.20;99.90
758;DHT22;363;48.764;9.172;2023-02-15T05:36:53;0.30;99.90
758;DHT22;363;48.764;9.172;2023-02-15T05:39:18;0.00;99.90
758;DHT22;363;48.764;9.172;2023-02-15T05:41:44;-0.30;99.90
758;DHT22;363;48.764;9.172;2023-02-15T05:44:09;0.30;99.90
758;DHT22;363;48.764;9.172;2023-02-15T05:46:35;0.20;99.90
758;DHT22;363;48.764;9.172;2023-02-15T05:49:00;0.40;99.90
758;DHT22;363;48.764;9.172;2023-02-15T05:51:26;0.30;99.90
758;DHT22;363;48.764;9.172;2023-02-15T05:53:53;-0.20;99.90
758;DHT22;363;48.764;9.172;2023-02-15T05:56:18;0.30;99.90
758;DHT22;363;48.764;9.172;2023-02-15T05:58:44;0.50;99.90
758;DHT22;363;48.764;9.172;2023-02-15T06:01:10;-0.30;99.90
758;DHT22;363;48.764;9.172;2023-02-15T06:03:36;0.80;99.90
758;DHT22;363;48.764;9.172;2023-02-15T06:06:01;-0.30;99.90
758;DHT22;363;48.764;9.172;2023-02-15T06:08:30;0.30;99.90
758;DHT22;363;48.764;9.172;2023-02-15T06:10:55;-0.20;99.90
758;DHT22;363;48.764;9.172;2023-02-15T06:13:21;0.40;99.90
758;DHT22;363;48.764;9.172;2023-02-15T06:15:47;0.50;99.90
758;DHT22;363;48.764;9.172;2023-02-15T06:18:12;-0.20;99.90
758;DHT22;363;48.764;9.172;2023-02-15T06:20:38;0.40;99.90
758;DHT22;363;48.764;9.172;2023-02-15T06:23:03;0.00;99.90
758;DHT22;363;48.764;9.172;2023-02-15T06:25:29;0.50;99.90
758;DHT22;363;48.764;9.172;2023-02-15T06:27:54;0.50;99.90
758;DHT22;363;48.764;9.172;2023-02-15T06:30:20;0.50;99.90
758;DHT22;363;48.764;9.172;2023-02-15T06:32:46;0.40;99.90
758;DHT22;363;48.764;9.172;2023-02-15T06:35:11;0.90;99.90
758;DHT22;363;48.764;9.172;2023-02-15T06:37:37;0.20;99.90
758;DHT22;363;48.764;9.172;2023-02-15T06:40:03;0.30;99.90
758;DHT22;363;48.764;9.172;2023-02-15T06:42:29;0.60;99.90
758;DHT22;363;48.764;9.172;2023-02-15T06:44:55;0.80;99.90
758;DHT22;363;48.764;9.172;2023-02-15T06:47:20;0.40;99.90
758;DHT22;363;48.764;9.172;2023-02-15T06:49:46;0.40;99.90
758;DHT22;363;48.764;9.172;2023-02-15T06:52:11;1.00;99.90
758;DHT22;363;48.764;9.172;2023-02-15T06:54:37;0.40;99.90
758;DHT22;363;48.764;9.172;2023-02-15T06:57:03;0.60;99.90
758;DHT22;363;48.764;9.172;2023-02-15T06:59:28;0.60;99.90
758;DHT22;363;48.764;9.172;2023-02-15T07:01:54;0.70;99.90
758;DHT22;363;48.764;9.172;2023-02-15T07:04:19;-0.20;99.90
758;DHT22;363;48.764;9.172;2023-02-15T07:06:45;0.50;99.90
758;DHT22;363;48.764;9.172;2023-02-15T07:09:11;0.40;99.90
758;DHT22;363;48.764;9.172;2023-02-15T07:11:38;0.80;99.90
758;DHT22;363;48.764;9.172;2023-02-15T07:14:22;0.80;99.90
758;DHT22;363;48.764;9.172;2023-02-15T07:16:47;1.10;99.90
758;DHT22;363;48.764;9.172;2023-02-15T07:19:13;1.00;99.90
758;DHT22;363;48.764;9.172;2023-02-15T07:21:38;1.20;99.90
758;DHT22;363;48.764;9.172;2023-02-15T07:24:04;1.30;99.90
758;DHT22;363;48.764;9.172;2023-02-15T07:26:32;1.10;99.90
758;DHT22;363;48.764;9.172;2023-02-15T07:28:57;1.20;99.90
758;DHT22;363;48.764;9.172;2023-02-15T07:31:23;1.20;99.90
758;DHT22;363;48.764;9.172;2023-02-15T07:33:48;1.20;99.90
758;DHT22;363;48.764;9.172;2023-02-15T07:36:14;0.50;99.90
758;DHT22;363;48.764;9.172;2023-02-15T07:38:41;1.10;99.90
758;DHT22;363;48.764;9.172;2023-02-15T07:41:12;0.50;99.90
758;DHT22;363;48.764;9.172;2023-02-15T07:43:40;1.10;99.90
758;DHT22;363;48.764;9.172;2023-02-15T07:46:08;1.00;99.90
758;DHT22;363;48.764;9.172;2023-02-15T07:48:35;0.50;99.90
758;DHT22;363;48.764;9.172;2023-02-15T07:51:02;1.60;99.90
758;DHT22;363;48.764;9.172;2023-02-15T07:53:29;0.90;99.90
758;DHT22;363;48.764;9.172;2023-02-15T07:55:58;1.30;99.90
758;DHT22;363;48.764;9.172;2023-02-15T07:58:24;1.10;99.90
758;DHT22;363;48.764;9.172;2023-02-15T08:01:09;1.30;99.90
758;DHT22;363;48.764;9.172;2023-02-15T08:03:35;1.20;99.90
758;DHT22;363;48.764;9.172;2023-02-15T08:06:01;1.40;99.90
758;DHT22;363;48.764;9.172;2023-02-15T08:08:27;0.90;99.90
758;DHT22;363;48.764;9.172;2023-02-15T08:21:37;1.90;99.90
758;DHT22;363;48.764;9.172;2023-02-15T08:24:03;1.90;99.90
758;DHT22;363;48.764;9.172;2023-02-15T08:26:30;1.80;99.90
758;DHT22;363;48.764;9.172;2023-02-15T08:28:56;2.00;99.90
758;DHT22;363;48.764;9.172;2023-02-15T08:31:22;1.70;99.90
758;DHT22;363;48.764;9.172;2023-02-15T08:33:49;1.50;99.90
758;DHT22;363;48.764;9.172;2023-02-15T08:36:17;1.60;99.90
758;DHT22;363;48.764;9.172;2023-02-15T08:38:44;1.60;99.90
758;DHT22;363;48.764;9.172;2023-02-15T08:41:18;1.60;99.90
758;DHT22;363;48.764;9.172;2023-02-15T08:43:46;2.20;99.90
758;DHT22;363;48.764;9.172;2023-02-15T08:46:13;1.70;99.90
758;DHT22;363;48.764;9.172;2023-02-15T08:48:40;2.80;99.90
758;DHT22;363;48.764;9.172;2023-02-15T08:51:11;2.40;99.90
758;DHT22;363;48.764;9.172;2023-02-15T08:53:38;2.60;99.90
758;DHT22;363;48.764;9.172;2023-02-15T08:56:05;1.90;99.90
758;DHT22;363;48.764;9.172;2023-02-15T08:58:31;2.60;99.90
758;DHT22;363;48.764;9.172;2023-02-15T09:00:57;2.60;99.90
758;DHT22;363;48.764;9.172;2023-02-15T09:03:23;2.40;99.90
758;DHT22;363;48.764;9.172;2023-02-15T09:05:49;3.80;99.90
758;DHT22;363;48.764;9.172;2023-02-15T09:08:15;3.70;99.90
758;DHT22;363;48.764;9.172;2023-02-15T09:10:40;4.30;99.90
758;DHT22;363;48.764;9.172;2023-02-15T09:13:06;6.30;99.90
758;DHT22;363;48.764;9.172;2023-02-15T09:15:31;7.00;99.90
758;DHT22;363;48.764;9.172;2023-02-15T09:17:57;8.40;98.50
758;DHT22;363;48.764;9.172;2023-02-15T09:20:26;8.40;96.20
758;DHT22;363;48.764;9.172;2023-02-15T09:22:53;8.90;95.30
758;DHT22;363;48.764;9.172;2023-02-15T09:25:19;9.00;94.40
758;DHT22;363;48.764;9.172;2023-02-15T09:27:45;8.50;95.20
758;DHT22;363;48.764;9.172;2023-02-15T09:30:11;8.20;95.70
758;DHT22;363;48.764;9.172;2023-02-15T09:32:36;7.60;96.40
758;DHT22;363;48.764;9.172;2023-02-15T09:35:02;7.90;96.80
758;DHT22;363;48.764;9.172;2023-02-15T09:37:29;8.10;96.10
758;DHT22;363;48.764;9.172;2023-02-15T09:39:55;9.20;94.90
758;DHT22;363;48.764;9.172;2023-02-15T09:50:37;9.30;92.50
758;DHT22;363;48.764;9.172;2023-02-15T09:53:52;8.90;93.40
758;DHT22;363;48.764;9.172;2023-02-15T09:56:38;10.20;92.50
758;DHT22;363;48.764;9.172;2023-02-15T10:01:50;10.90;90.30
758;DHT22;363;48.764;9.172;2023-02-15T10:10:36;12.60;85.70
758;DHT22;363;48.764;9.172;2023-02-15T10:13:39;13.10;82.20
758;DHT22;363;48.764;9.172;2023-02-15T10:19:52;12.40;81.80
758;DHT22;363;48.764;9.172;2023-02-15T10:22:43;12.10;82.10
758;DHT22;363;48.764;9.172;2023-02-15T10:25:28;12.10;82.90
758;DHT22;363;48.764;9.172;2023-02-15T10:28:01;11.80;83.40
758;DHT22;363;48.764;9.172;2023-02-15T10:30:50;11.30;85.10
758;DHT22;363;48.764;9.172;2023-02-15T10:33:39;11.40;86.40
758;DHT22;363;48.764;9.172;2023-02-15T10:36:19;11.10;86.80
758;DHT22;363;48.764;9.172;2023-02-15T10:39:24;10.60;89.10
758;DHT22;363;48.764;9.172;2023-02-15T10:42:02;10.40;89.00
758;DHT22;363;48.764;9.172;2023-02-15T10:49:52;11.60;85.80
758;DHT22;363;48.764;9.172;2023-02-15T10:52:43;12.70;83.70
758;DHT22;363;48.764;9.172;2023-02-15T10:55:45;13.30;81.10
758;DHT22;363;48.764;9.172;2023-02-15T11:01:27;13.80;77.80
758;DHT22;363;48.764;9.172;2023-02-15T11:06:56;14.30;75.90
758;DHT22;363;48.764;9.172;2023-02-15T11:09:27;14.60;74.40
758;DHT22;363;48.764;9.172;2023-02-15T11:11:56;14.20;73.90
758;DHT22;363;48.764;9.172;2023-02-15T11:14:43;13.30;76.30
758;DHT22;363;48.764;9.172;2023-02-15T11:17:14;14.00;77.30
758;DHT22;363;48.764;9.172;2023-02-15T11:22:23;15.00;73.60
758;DHT22;363;48.764;9.172;2023-02-15T11:24:49;15.70;71.70
758;DHT22;363;48.764;9.172;2023-02-15T11:27:24;16.00;70.60
758;DHT22;363;48.764;9.172;2023-02-15T11:32:27;15.60;69.90
758;DHT22;363;48.764;9.172;2023-02-15T11:37:41;15.30;70.30
758;DHT22;363;48.764;9.172;2023-02-15T11:40:27;15.30;69.70
758;DHT22;363;48.764;9.172;2023-02-15T11:43:02;14.80;71.00
758;DHT22;363;48.764;9.172;2023-02-15T11:45:34;15.70;71.50
758;DHT22;363;48.764;9.172;2023-02-15T11:48:01;15.30;69.80
758;DHT22;363;48.764;9.172;2023-02-15T11:50:30;14.60;72.60
758;DHT22;363;48.764;9.172;2023-02-15T11:52:59;14.30;72.50
758;DHT22;363;48.764;9.172;2023-02-15T11:55:27;14.30;73.90
758;DHT22;363;48.764;9.172;2023-02-15T11:58:25;13.70;74.70
758;DHT22;363;48.764;9.172;2023-02-15T12:01:01;13.70;76.00
758;DHT22;363;48.764;9.172;2023-02-15T12:03:50;13.40;77.00
758;DHT22;363;48.764;9.172;2023-02-15T12:06:33;13.00;78.20
758;DHT22;363;48.764;9.172;2023-02-15T12:09:07;12.80;80.40
758;DHT22;363;48.764;9.172;2023-02-15T12:11:37;12.40;81.70
758;DHT22;363;48.764;9.172;2023-02-15T12:14:06;12.30;82.00
758;DHT22;363;48.764;9.172;2023-02-15T12:16:57;12.20;82.20
758;DHT22;363;48.764;9.172;2023-02-15T12:19:54;12.20;83.10
758;DHT22;363;48.764;9.172;2023-02-15T12:22:27;12.60;82.70
758;DHT22;363;48.764;9.172;2023-02-15T12:24:59;12.50;82.50
758;DHT22;363;48.764;9.172;2023-02-15T12:27:28;12.70;82.90
758;DHT22;363;48.764;9.172;2023-02-15T12:30:01;11.70;82.80
758;DHT22;363;48.764;9.172;2023-02-15T12:32:33;11.90;84.70
758;DHT22;363;48.764;9.172;2023-02-15T12:35:06;11.70;85.50
758;DHT22;363;48.764;9.172;2023-02-15T12:37:33;12.40;85.90
758;DHT22;363;48.764;9.172;2023-02-15T12:40:02;12.20;85.50
758;DHT22;363;48.764;9.172;2023-02-15T12:42:41;12.30;85.70
758;DHT22;363;48.764;9.172;2023-02-15T12:45:31;12.00;86.20
758;DHT22;363;48.764;9.172;2023-02-15T12:50:40;11.60;87.70
758;DHT22;363;48.764;9.172;2023-02-15T12:53:18;11.50;88.80
758;DHT22;363;48.764;9.172;2023-02-15T12:58:25;11.60;89.60
758;DHT22;363;48.764;9.172;2023-02-15T13:03:29;11.30;90.10
758;DHT22;363;48.764;9.172;2023-02-15T13:05:56;11.50;90.20
758;DHT22;363;48.764;9.172;2023-02-15T13:08:27;11.10;90.30
758;DHT22;363;48.764;9.172;2023-02-15T13:11:08;11.20;90.40
758;DHT22;363;48.764;9.172;2023-02-15T13:13:55;11.10;90.60
758;DHT22;363;48.764;9.172;2023-02-15T13:16:31;11.50;91.10
758;DHT22;363;48.764;9.172;2023-02-15T13:19:26;11.30;90.80
758;DHT22;363;48.764;9.172;2023-02-15T13:21:51;11.20;90.60
758;DHT22;363;48.764;9.172;2023-02-15T13:24:35;11.30;90.90
758;DHT22;363;48.764;9.172;2023-02-15T13:27:03;11.40;91.10
758;DHT22;363;48.764;9.172;2023-02-15T13:29:36;11.50;91.10
758;DHT22;363;48.764;9.172;2023-02-15T13:32:26;11.50;90.70
758;DHT22;363;48.764;9.172;2023-02-15T13:34:56;11.10;90.70
758;DHT22;363;48.764;9.172;2023-02-15T13:40:21;11.20;91.10
758;DHT22;363;48.764;9.172;2023-02-15T13:42:54;11.20;91.40
758;DHT22;363;48.764;9.172;2023-02-15T13:54:05;11.20;91.80
758;DHT22;363;48.764;9.172;2023-02-15T14:05:01;11.20;92.30
758;DHT22;363;48.764;9.172;2023-02-15T14:08:02;11.00;92.30
758;DHT22;363;48.764;9.172;2023-02-15T14:10:54;10.90;92.20
758;DHT22;363;48.764;9.172;2023-02-15T14:16:33;11.20;92.30
758;DHT22;363;48.764;9.172;2023-02-15T14:19:21;11.00;92.50
758;DHT22;363;48.764;9.172;2023-02-15T14:24:38;11.20;92.80
758;DHT22;363;48.764;9.172;2023-02-15T14:29:53;10.70;92.10
758;DHT22;363;48.764;9.172;2023-02-15T14:35:00;11.20;92.00
758;DHT22;363;48.764;9.172;2023-02-15T14:43:24;11.20;91.90
758;DHT22;363;48.764;9.172;2023-02-15T14:45:55;11.30;92.00
758;DHT22;363;48.764;9.172;2023-02-15T14:48:24;11.30;91.70
758;DHT22;363;48.764;9.172;2023-02-15T14:50:51;11.40;91.40
758;DHT22;363;48.764;9.172;2023-02-15T14:56:15;11.00;91.40
758;DHT22;363;48.764;9.172;2023-02-15T15:01:15;11.20;91.20
758;DHT22;363;48.764;9.172;2023-02-15T15:03:51;11.10;91.00
758;DHT22;363;48.764;9.172;2023-02-15T15:06:34;11.20;90.70
758;DHT22;363;48.764;9.172;2023-02-15T15:09:20;11.20;90.50
758;DHT22;363;48.764;9.172;2023-02-15T15:11:49;11.00;90.20
758;DHT22;363;48.764;9.172;2023-02-15T15:14:39;11.30;90.20
758;DHT22;363;48.764;9.172;2023-02-15T15:17:06;11.20;90.00
758;DHT22;363;48.764;9.172;2023-02-15T15:22:22;11.20;91.50
758;DHT22;363;48.764;9.172;2023-02-15T15:24:58;11.10;91.90
758;DHT22;363;48.764;9.172;2023-02-15T15:49:32;10.40;94.00
758;DHT22;363;48.764;9.172;2023-02-15T15:52:09;10.30;94.20
758;DHT22;363;48.764;9.172;2023-02-15T15:54:38;10.20;94.40
758;DHT22;363;48.764;9.172;2023-02-15T15:57:05;9.90;95.00
758;DHT22;363;48.764;9.172;2023-02-15T15:59:33;9.90;95.50
758;DHT22;363;48.764;9.172;2023-02-15T16:02:07;10.10;95.30
758;DHT22;363;48.764;9.172;2023-02-15T16:04:36;10.10;95.50
758;DHT22;363;48.764;9.172;2023-02-15T16:09:57;9.60;96.40
758;DHT22;363;48.764;9.172;2023-02-15T16:12:24;9.80;96.50
758;DHT22;363;48.764;9.172;2023-02-15T16:14:50;9.80;96.20
758;DHT22;363;48.764;9.172;2023-02-15T16:17:21;9.60;96.50
758;DHT22;363;48.764;9.172;2023-02-15T16:19:48;9.50;96.60
758;DHT22;363;48.764;9.172;2023-02-15T16:22:19;9.40;96.70
758;DHT22;363;48.764;9.172;2023-02-15T16:29:54;9.70;97.20
758;DHT22;363;48.764;9.172;2023-02-15T16:32:29;9.10;97.40
758;DHT22;363;48.764;9.172;2023-02-15T16:34:58;9.40;97.60
758;DHT22;363;48.764;9.172;2023-02-15T16:37:26;9.00;97.50
758;DHT22;363;48.764;9.172;2023-02-15T16:39:54;9.10;97.80
758;DHT22;363;48.764;9.172;2023-02-15T16:42:20;9.00;98.10
758;DHT22;363;48.764;9.172;2023-02-15T16:45:35;8.90;98.60
758;DHT22;363;48.764;9.172;2023-02-15T16:47:40;8.40;98.80
758;DHT22;363;48.764;9.172;2023-02-15T16:50:17;7.80;99.30
758;DHT22;363;48.764;9.172;2023-02-15T16:52:43;8.40;99.80
758;DHT22;363;48.764;9.172;2023-02-15T16:55:24;8.70;99.90
758;DHT22;363;48.764;9.172;2023-02-15T16:57:50;8.40;99.90
758;DHT22;363;48.764;9.172;2023-02-15T17:00:19;8.10;99.90
758;DHT22;363;48.764;9.172;2023-02-15T17:03:05;8.10;99.90
758;DHT22;363;48.764;9.172;2023-02-15T17:05:32;8.50;99.90
758;DHT22;363;48.764;9.172;2023-02-15T17:11:11;7.80;99.90
758;DHT22;363;48.764;9.172;2023-02-15T17:13:38;7.70;99.90
758;DHT22;363;48.764;9.172;2023-02-15T17:21:08;7.40;99.90
758;DHT22;363;48.764;9.172;2023-02-15T17:23:46;7.30;99.90
758;DHT22;363;48.764;9.172;2023-02-15T17:26:15;7.70;99.90
758;DHT22;363;48.764;9.172;2023-02-15T17:28:47;7.40;99.90
758;DHT22;363;48.764;9.172;2023-02-15T17:31:16;7.30;99.90
758;DHT22;363;48.764;9.172;2023-02-15T17:33:42;6.90;99.90
758;DHT22;363;48.764;9.172;2023-02-15T17:36:16;7.20;99.90
758;DHT22;363;48.764;9.172;2023-02-15T17:39:17;7.20;99.90
758;DHT22;363;48.764;9.172;2023-02-15T17:41:43;7.10;99.90
758;DHT22;363;48.764;9.172;2023-02-15T17:44:09;7.10;99.90
758;DHT22;363;48.764;9.172;2023-02-15T17:46:39;7.00;99.90
758;DHT22;363;48.764;9.172;2023-02-15T17:49:06;6.80;99.90
758;DHT22;363;48.764;9.172;2023-02-15T17:51:32;6.50;99.90
758;DHT22;363;48.764;9.172;2023-02-15T17:54:01;6.90;99.90
758;DHT22;363;48.764;9.172;2023-02-15T17:56:45;6.80;99.90
758;DHT22;363;48.764;9.172;2023-02-15T17:59:11;6.60;99.90
758;DHT22;363;48.764;9.172;2023-02-15T18:01:46;6.60;99.90
758;DHT22;363;48.764;9.172;2023-02-15T18:04:32;6.20;99.90
758;DHT22;363;48.764;9.172;2023-02-15T18:07:18;6.30;99.90
758;DHT22;363;48.764;9.172;2023-02-15T18:10:15;6.20;99.90
758;DHT22;363;48.764;9.172;2023-02-15T18:13:00;6.00;99.90
758;DHT22;363;48.764;9.172;2023-02-15T18:15:25;6.10;99.90
758;DHT22;363;48.764;9.172;2023-02-15T18:17:51;5.80;99.90
758;DHT22;363;48.764;9.172;2023-02-15T18:22:43;5.70;99.90
758;DHT22;363;48.764;9.172;2023-02-15T18:25:13;5.70;99.90
758;DHT22;363;48.764;9.172;2023-02-15T18:27:39;5.60;99.90
758;DHT22;363;48.764;9.172;2023-02-15T18:30:06;5.70;99.90
758;DHT22;363;48.764;9.172;2023-02-15T18:32:34;5.60;99.90
758;DHT22;363;48.764;9.172;2023-02-15T18:35:02;5.60;99.90
758;DHT22;363;48.764;9.172;2023-02-15T18:37:31;5.50;99.90
758;DHT22;363;48.764;9.172;2023-02-15T18:40:00;5.20;99.90
758;DHT22;363;48.764;9.172;2023-02-15T18:42:30;5.40;99.90
758;DHT22;363;48.764;9.172;2023-02-15T18:45:03;5.50;99.90
758;DHT22;363;48.764;9.172;2023-02-15T18:47:31;5.20;99.90
758;DHT22;363;48.764;9.172;2023-02-15T18:49:57;5.30;99.90
758;DHT22;363;48.764;9.172;2023-02-15T18:52:25;5.20;99.90
758;DHT22;363;48.764;9.172;2023-02-15T18:54:58;4.90;99.90
758;DHT22;363;48.764;9.172;2023-02-15T18:57:26;5.20;99.90
758;DHT22;363;48.764;9.172;2023-02-15T18:59:52;5.30;99.90
758;DHT22;363;48.764;9.172;2023-02-15T19:02:18;4.50;99.90
758;DHT22;363;48.764;9.172;2023-02-15T19:04:45;5.00;99.90
758;DHT22;363;48.764;9.172;2023-02-15T19:07:19;5.00;99.90
758;DHT22;363;48.764;9.172;2023-02-15T19:09:49;5.00;99.90
758;DHT22;363;48.764;9.172;2023-02-15T19:12:15;4.50;99.90
758;DHT22;363;48.764;9.172;2023-02-15T19:14:41;4.90;99.90
758;DHT22;363;48.764;9.172;2023-02-15T19:17:17;4.80;99.90
758;DHT22;363;48.764;9.172;2023-02-15T19:19:44;4.90;99.90
758;DHT22;363;48.764;9.172;2023-02-15T19:22:26;4.50;99.90
758;DHT22;363;48.764;9.172;2023-02-15T19:24:53;4.60;99.90
758;DHT22;363;48.764;9.172;2023-02-15T19:27:26;4.70;99.90
758;DHT22;363;48.764;9.172;2023-02-15T19:29:53;4.90;99.90
758;DHT22;363;48.764;9.172;2023-02-15T19:32:19;4.70;99.90
758;DHT22;363;48.764;9.172;2023-02-15T19:34:45;4.90;99.90
758;DHT22;363;48.764;9.172;2023-02-15T19:37:33;4.80;99.90
758;DHT22;363;48.764;9.172;2023-02-15T19:40:02;5.00;99.90
758;DHT22;363;48.764;9.172;2023-02-15T19:42:27;4.90;99.90
758;DHT22;363;48.764;9.172;2023-02-15T19:44:53;4.90;99.90
758;DHT22;363;48.764;9.172;2023-02-15T19:47:19;5.20;99.90
758;DHT22;363;48.764;9.172;2023-02-15T19:49:46;4.50;99.90
758;DHT22;363;48.764;9.172;2023-02-15T19:52:18;4.30;99.90
758;DHT22;363;48.764;9.172;2023-02-15T19:54:44;4.70;99.90
758;DHT22;363;48.764;9.172;2023-02-15T19:57:11;4.10;99.90